Time;durP1;ratioP1;P1;durP2;ratioP2;P2;SDS_P1;SDS_P2;PMS_P1;PMS_P2;Temp;Humidity;BMP_temperature;BMP_pressure;BME280_temperature;BME280_humidity;BME280_pressure;Samples;Min_cycle;Max_cycle;Signal;HPM_P1;HPM_P2
2023/10/19 00:01:15;;;;;;;4.80;2.17;;;;;;;19.66;49.40;99201.97;4998334;28;20035;-65
2023/10/19 00:03:40;;;;;;;3.95;2.08;;;;;;;19.65;49.35;99198.53;4998410;28;20443;-62
2023/10/19 00:06:05;;;;;;;4.28;2.15;;;;;;;19.64;49.43;99206.63;4998024;28;20034;-63
2023/10/19 00:08:43;;;;;;;4.22;1.95;;;;;;;19.65;49.49;99193.25;4998183;28;20463;-62
2023/10/19 00:11:10;;;;;;;4.35;1.90;;;;;;;19.64;49.44;99199.50;4998496;28;20109;-65
2023/10/19 00:13:39;;;;;;;5.93;2.13;;;;;;;19.64;49.53;99204.00;4998330;28;20034;-63
2023/10/19 00:16:16;;;;;;;4.18;2.10;;;;;;;19.64;49.78;99204.00;4997638;28;20148;-62
2023/10/19 00:18:42;;;;;;;3.67;1.90;;;;;;;19.63;49.54;99197.88;4998076;28;20026;-66
2023/10/19 00:21:23;;;;;;;4.55;2.20;;;;;;;19.62;49.71;99200.72;5013569;28;20026;-62
2023/10/19 00:23:56;;;;;;;3.78;1.80;;;;;;;19.62;49.49;99198.06;4997696;28;20088;-63
2023/10/19 00:26:24;;;;;;;4.03;2.03;;;;;;;19.63;49.54;99204.97;4998247;28;20037;-65
2023/10/19 00:28:53;;;;;;;3.92;1.85;;;;;;;19.63;49.68;99199.69;4997989;28;20490;-62
2023/10/19 00:31:20;;;;;;;4.28;1.85;;;;;;;19.62;49.73;99187.50;4997974;28;20034;-63
2023/10/19 00:33:45;;;;;;;3.72;2.00;;;;;;;19.62;49.67;99198.06;4997632;28;20042;-63
2023/10/19 00:36:14;;;;;;;3.88;1.80;;;;;;;19.61;49.78;99189.28;4997833;28;20530;-63
2023/10/19 00:41:29;;;;;;;3.67;1.98;;;;;;;19.57;49.83;99194.09;4998174;28;20489;-61
2023/10/19 00:44:10;;;;;;;5.85;2.13;;;;;;;19.60;49.83;99192.94;4997881;28;20124;-61
2023/10/19 00:46:43;;;;;;;3.95;2.03;;;;;;;19.58;49.98;99184.34;4997703;28;20030;-62
2023/10/19 00:49:13;;;;;;;3.70;2.05;;;;;;;19.60;49.87;99186.81;4997765;28;20092;-61
2023/10/19 00:54:32;;;;;;;4.82;2.00;;;;;;;19.57;50.10;99186.19;4997789;28;20045;-64
2023/10/19 00:57:03;;;;;;;4.85;1.80;;;;;;;19.58;49.96;99179.91;4997325;28;20403;-62
2023/10/19 00:59:35;;;;;;;3.80;1.75;;;;;;;19.56;49.96;99186.34;4996878;28;20072;-62
2023/10/19 01:02:43;;;;;;;4.22;1.95;;;;;;;19.55;49.94;99180.25;4997491;28;20113;-64
2023/10/19 01:05:07;;;;;;;3.28;1.75;;;;;;;19.56;49.95;99191.63;5000042;28;20041;-62
2023/10/19 01:07:38;;;;;;;3.95;2.00;;;;;;;19.56;50.16;99192.44;4997003;28;20160;-64
2023/10/19 01:10:05;;;;;;;3.88;1.70;;;;;;;19.55;50.05;99189.97;4997474;28;20494;-62
2023/10/19 01:15:06;;;;;;;3.83;1.90;;;;;;;19.53;50.26;99182.22;4997690;28;20045;-62
2023/10/19 01:17:33;;;;;;;3.20;1.75;;;;;;;19.53;50.18;99182.22;4997226;28;20116;-63
2023/10/19 01:19:59;;;;;;;3.75;1.85;;;;;;;19.53;50.34;99176.13;4996358;28;20042;-64
2023/10/19 01:22:26;;;;;;;3.60;1.80;;;;;;;19.55;50.21;99182.06;4997162;28;20040;-64
2023/10/19 01:24:53;;;;;;;4.25;1.83;;;;;;;19.54;50.24;99178.59;5003413;28;20030;-64
2023/10/19 01:27:18;;;;;;;4.18;1.70;;;;;;;19.53;50.42;99182.22;4996897;28;20434;-65
2023/10/19 01:29:44;;;;;;;3.85;1.80;;;;;;;19.54;50.50;99177.78;4994520;28;20088;-63
2023/10/19 01:32:11;;;;;;;3.60;1.88;;;;;;;19.52;50.75;99172.69;4995355;28;20029;-63
2023/10/19 01:34:37;;;;;;;4.60;1.80;;;;;;;19.53;50.60;99179.59;4997230;28;20054;-62
2023/10/19 01:37:05;;;;;;;4.43;1.92;;;;;;;19.52;50.50;99174.50;4995782;28;20474;-63
2023/10/19 01:39:38;;;;;;;3.22;1.67;;;;;;;19.50;50.66;99172.03;4995336;28;20038;-65
2023/10/19 01:42:04;;;;;;;2.95;1.58;;;;;;;19.52;50.13;99172.69;5003947;28;20030;-64
2023/10/19 01:44:30;;;;;;;3.35;1.70;;;;;;;19.50;50.52;99172.03;4996783;28;20080;-63
2023/10/19 01:46:56;;;;;;;3.25;1.60;;;;;;;19.52;50.68;99175.31;4995897;28;20117;-62
2023/10/19 01:49:28;;;;;;;4.95;1.80;;;;;;;19.51;50.62;99172.84;4995923;28;20120;-64
2023/10/19 01:51:56;;;;;;;3.50;1.45;;;;;;;19.51;50.34;99178.94;4996434;28;20038;-65
2023/10/19 01:54:25;;;;;;;2.90;1.55;;;;;;;19.50;50.83;99172.03;4996792;28;20037;-66
2023/10/19 01:57:00;;;;;;;3.83;1.60;;;;;;;19.50;50.91;99163.28;4996060;28;20050;-65
2023/10/19 01:59:27;;;;;;;3.80;1.73;;;;;;;19.52;50.69;99171.88;4996623;28;20026;-64
2023/10/19 02:01:54;;;;;;;4.38;2.35;;;;;;;19.51;50.94;99176.31;4998266;28;20030;-67
2023/10/19 02:04:21;;;;;;;3.00;1.35;;;;;;;19.50;50.92;99179.97;5000250;28;20040;-64
2023/10/19 02:06:48;;;;;;;3.05;1.52;;;;;;;19.51;50.99;99183.41;5007983;28;20026;-64
2023/10/19 02:09:17;;;;;;;3.15;1.58;;;;;;;19.47;51.12;99176.81;5000410;28;20093;-64
2023/10/19 02:11:48;;;;;;;3.03;1.25;;;;;;;19.48;50.89;99174.00;5007435;28;20022;-65
2023/10/19 02:14:15;;;;;;;2.72;1.25;;;;;;;19.49;50.89;99169.56;5000310;28;20034;-63
2023/10/19 02:16:46;;;;;;;2.90;1.25;;;;;;;19.49;51.16;99170.38;4999981;28;20111;-63
2023/10/19 02:19:12;;;;;;;3.33;1.45;;;;;;;19.49;50.98;99167.75;5000450;28;20092;-64
2023/10/19 02:21:39;;;;;;;2.63;1.30;;;;;;;19.50;50.89;99168.56;5000588;28;20042;-65
2023/10/19 02:24:07;;;;;;;4.05;1.20;;;;;;;19.48;51.10;99163.44;4999898;28;20049;-64
2023/10/19 02:26:33;;;;;;;2.50;1.20;;;;;;;19.48;51.18;99165.28;5000319;28;20030;-63
2023/10/19 02:28:58;;;;;;;3.00;1.20;;;;;;;19.47;51.21;99172.38;4999607;28;20041;-62
2023/10/19 02:31:25;;;;;;;2.63;1.20;;;;;;;19.49;51.03;99169.56;5000199;28;20034;-63
2023/10/19 02:33:52;;;;;;;3.13;1.30;;;;;;;19.48;51.26;99170.56;4999858;28;20045;-62
2023/10/19 02:36:22;;;;;;;2.45;1.20;;;;;;;19.46;51.35;99162.81;4999925;28;20034;-65
2023/10/19 02:38:51;;;;;;;3.17;1.10;;;;;;;19.47;51.21;99161.81;4999955;28;20445;-64
2023/10/19 02:41:20;;;;;;;3.13;1.13;;;;;;;19.47;51.38;99161.81;5000005;28;20037;-62
2023/10/19 02:44:09;;;;;;;2.67;1.20;;;;;;;19.46;51.44;99160.16;4999745;28;20042;-63
2023/10/19 02:46:32;;;;;;;2.53;1.10;;;;;;;19.47;51.52;99148.59;4999641;28;20364;-65
2023/10/19 02:49:11;;;;;;;2.25;1.30;;;;;;;19.46;51.62;99154.06;5000016;28;20038;-63
2023/10/19 02:51:37;;;;;;;2.45;1.10;;;;;;;19.46;51.67;99157.53;5031438;28;20025;-62
2023/10/19 02:54:03;;;;;;;2.50;1.00;;;;;;;19.47;51.47;99153.03;4999945;28;21497;-64
2023/10/19 02:56:29;;;;;;;2.88;1.08;;;;;;;19.47;51.39;99150.41;4999423;28;20041;-65
2023/10/19 02:59:01;;;;;;;4.63;1.05;;;;;;;19.46;51.52;99152.22;4999818;28;20042;-64
2023/10/19 03:01:31;;;;;;;1.90;1.10;;;;;;;19.45;51.57;99149.75;4999741;28;20026;-63
2023/10/19 03:03:59;;;;;;;2.00;0.95;;;;;;;19.46;51.46;99152.22;4999799;28;20022;-64
2023/10/19 03:06:26;;;;;;;2.28;1.05;;;;;;;19.46;51.53;99159.34;4999103;28;20069;-62
2023/10/19 03:08:57;;;;;;;3.72;1.10;;;;;;;19.44;51.70;99143.66;4999027;28;20038;-63
2023/10/19 03:11:24;;;;;;;2.85;1.10;;;;;;;19.45;51.44;99155.88;4999422;28;20030;-62
2023/10/19 03:13:50;;;;;;;2.17;1.05;;;;;;;19.44;51.62;99145.47;4998778;28;20030;-65
2023/10/19 03:16:17;;;;;;;3.50;1.00;;;;;;;19.44;51.56;99148.94;4999429;28;20041;-61
2023/10/19 03:18:42;;;;;;;3.33;1.30;;;;;;;19.44;51.78;99140.19;4999077;28;20037;-65
2023/10/19 03:21:08;;;;;;;2.95;1.13;;;;;;;19.44;51.68;99143.66;4998799;28;20038;-65
2023/10/19 03:23:34;;;;;;;3.17;1.10;;;;;;;19.45;51.74;99139.19;4999075;28;20084;-64
2023/10/19 03:26:22;;;;;;;2.00;1.00;;;;;;;19.43;51.75;99139.38;4998764;28;20395;-63
2023/10/19 03:28:47;;;;;;;2.15;0.90;;;;;;;19.43;51.71;99128.00;4998601;28;20468;-64
2023/10/19 03:31:17;;;;;;;2.58;1.15;;;;;;;19.43;51.75;99136.72;4998802;28;20038;-61
2023/10/19 03:33:49;;;;;;;2.47;0.85;;;;;;;19.42;51.71;99127.16;4999271;28;20435;-64
2023/10/19 03:36:15;;;;;;;2.20;1.10;;;;;;;19.42;51.74;99129.78;4998372;28;20390;-62
2023/10/19 03:38:40;;;;;;;2.40;1.00;;;;;;;19.38;51.80;99117.94;4999082;28;20050;-63
2023/10/19 03:41:07;;;;;;;3.08;0.98;;;;;;;19.43;51.77;99125.34;4999025;28;20041;-64
2023/10/19 03:43:34;;;;;;;2.25;1.00;;;;;;;19.42;51.82;99129.78;4998809;28;20033;-65
2023/10/19 03:46:04;;;;;;;2.13;1.00;;;;;;;19.42;52.00;99128.97;4998738;28;20042;-64
2023/10/19 03:48:36;;;;;;;2.35;0.95;;;;;;;19.41;51.89;99122.88;4998745;28;20100;-64
2023/10/19 03:51:02;;;;;;;2.67;1.00;;;;;;;19.41;51.94;99133.44;4998627;28;20030;-61
2023/10/19 03:53:28;;;;;;;2.70;0.93;;;;;;;19.40;52.07;99129.16;4998997;28;20041;-65
2023/10/19 03:55:54;;;;;;;2.17;0.80;;;;;;;19.40;51.84;99123.88;4998319;28;20026;-61
2023/10/19 03:58:20;;;;;;;1.77;0.90;;;;;;;19.40;51.97;99124.69;4998680;28;20030;-64
2023/10/19 04:00:49;;;;;;;1.40;0.70;;;;;;;19.39;52.01;99115.13;4998503;28;20488;-63
2023/10/19 04:03:17;;;;;;;2.33;1.10;;;;;;;19.40;51.98;99116.75;4998354;28;20073;-62
2023/10/19 04:05:46;;;;;;;2.55;0.90;;;;;;;19.39;52.15;99116.94;4998367;28;20072;-63
2023/10/19 04:08:15;;;;;;;2.17;0.80;;;;;;;19.38;52.15;99116.13;4998092;28;20410;-61
2023/10/19 04:10:44;;;;;;;2.72;0.80;;;;;;;19.38;52.21;99113.47;4998410;28;20518;-63
2023/10/19 04:13:10;;;;;;;2.13;0.95;;;;;;;19.40;51.98;99115.94;4998469;28;20030;-65
2023/10/19 04:15:36;;;;;;;2.35;0.90;;;;;;;19.39;52.03;99128.34;4997985;28;20120;-63
2023/10/19 04:18:08;;;;;;;1.77;0.80;;;;;;;19.41;52.07;99120.25;4997970;28;20097;-63
2023/10/19 04:23:19;;;;;;;1.67;0.98;;;;;;;19.40;51.87;99116.75;4997833;28;20048;-64
2023/10/19 04:25:45;;;;;;;3.38;0.90;;;;;;;19.38;52.11;99113.47;4996804;28;20481;-64
2023/10/19 04:28:13;;;;;;;1.95;0.80;;;;;;;19.39;52.20;99116.94;5004297;28;20110;-65
2023/10/19 04:30:39;;;;;;;1.95;0.90;;;;;;;19.39;52.12;99119.56;4998082;28;20062;-64
2023/10/19 04:33:08;;;;;;;3.08;1.00;;;;;;;19.40;51.96;99118.59;4997969;28;20093;-65
2023/10/19 04:35:35;;;;;;;1.88;0.82;;;;;;;19.38;52.22;99121.41;4997774;28;20023;-63
2023/10/19 04:38:00;;;;;;;1.80;0.80;;;;;;;19.40;52.21;99118.59;4997691;28;20026;-63
2023/10/19 04:40:26;;;;;;;3.80;1.10;;;;;;;19.38;52.16;99131.16;4997438;28;20038;-65
2023/10/19 04:42:53;;;;;;;2.17;0.80;;;;;;;19.37;52.13;99121.56;4997417;28;20114;-61
2023/10/19 04:45:18;;;;;;;2.60;0.80;;;;;;;19.37;52.23;99122.38;4995892;28;20060;-65
2023/10/19 04:47:44;;;;;;;1.98;1.00;;;;;;;19.37;52.21;99127.66;4995142;28;20398;-66
2023/10/19 04:50:10;;;;;;;2.85;1.00;;;;;;;19.37;52.02;99126.84;4994841;28;20434;-63
2023/10/19 04:52:36;;;;;;;1.92;0.80;;;;;;;19.38;52.01;99131.16;4997577;28;20110;-63
2023/10/19 04:55:02;;;;;;;2.00;0.80;;;;;;;19.36;52.23;99126.03;4996773;28;20072;-61
2023/10/19 04:57:27;;;;;;;2.13;0.80;;;;;;;19.36;52.16;99128.69;4997181;28;20066;-62
2023/10/19 04:59:53;;;;;;;1.77;0.80;;;;;;;19.37;52.22;99132.13;4997499;28;20030;-61
2023/10/19 05:02:18;;;;;;;2.22;0.80;;;;;;;19.36;52.43;99133.16;4997093;28;20502;-64
2023/10/19 05:04:45;;;;;;;1.75;0.90;;;;;;;19.37;52.23;99134.78;4997159;28;20038;-60
2023/10/19 05:07:12;;;;;;;2.00;0.82;;;;;;;19.37;52.20;99132.13;5027480;28;20037;-64
2023/10/19 05:09:39;;;;;;;2.40;0.80;;;;;;;19.36;52.11;99135.78;4996023;28;20080;-62
2023/10/19 05:12:08;;;;;;;1.73;0.80;;;;;;;19.37;52.16;99137.41;4996508;28;20033;-61
2023/10/19 05:14:35;;;;;;;2.45;0.88;;;;;;;19.35;52.18;99129.66;4996768;28;20045;-63
2023/10/19 05:17:04;;;;;;;1.60;0.70;;;;;;;19.35;52.01;99137.59;4996888;28;20113;-65
2023/10/19 05:19:32;;;;;;;3.80;0.93;;;;;;;19.36;52.13;99135.78;4996974;28;20138;-64
2023/10/19 05:22:00;;;;;;;2.03;0.85;;;;;;;19.34;52.32;99130.69;4997070;28;20034;-62
2023/10/19 05:24:27;;;;;;;1.50;0.70;;;;;;;19.34;52.16;99141.25;4996810;28;20033;-64
2023/10/19 05:26:53;;;;;;;1.85;0.80;;;;;;;19.33;52.10;99131.66;4996847;28;20034;-65
2023/10/19 05:29:19;;;;;;;3.22;1.00;;;;;;;19.34;52.37;99129.84;4997187;28;20233;-64
2023/10/19 05:31:44;;;;;;;3.33;1.27;;;;;;;19.35;52.51;99137.59;4997012;28;20554;-62
2023/10/19 05:34:09;;;;;;;3.08;1.30;;;;;;;19.33;52.22;99129.03;4997204;28;20367;-63
2023/10/19 05:36:35;;;;;;;3.20;1.10;;;;;;;19.34;52.13;99140.41;5026489;28;20033;-64
2023/10/19 05:39:00;;;;;;;2.50;1.10;;;;;;;19.36;52.18;99141.06;4996342;28;20294;-65
2023/10/19 05:41:26;;;;;;;2.85;1.10;;;;;;;19.37;52.08;99150.63;4996966;28;20038;-65
2023/10/19 05:43:53;;;;;;;2.72;1.00;;;;;;;19.38;51.94;99145.19;5003855;28;20125;-65
2023/10/19 05:46:21;;;;;;;2.75;1.00;;;;;;;19.39;51.88;99149.47;4996914;28;20054;-65
2023/10/19 05:48:48;;;;;;;2.63;0.90;;;;;;;19.38;52.06;99145.19;4996865;28;20450;-63
2023/10/19 05:51:14;;;;;;;1.80;0.80;;;;;;;19.39;51.79;99153.91;4997289;28;20027;-65
2023/10/19 05:53:39;;;;;;;2.55;0.80;;;;;;;19.41;51.78;99157.22;4996582;28;20030;-63
2023/10/19 05:56:06;;;;;;;2.15;0.80;;;;;;;19.42;51.74;99153.56;4996689;28;20216;-65
2023/10/19 05:58:31;;;;;;;2.05;0.80;;;;;;;19.40;51.63;99152.94;4997116;28;20034;-65
2023/10/19 06:01:00;;;;;;;2.65;0.80;;;;;;;19.40;51.75;99159.03;5003265;28;20114;-62
2023/10/19 06:03:25;;;;;;;2.50;0.80;;;;;;;19.43;51.47;99152.59;4996921;28;20045;-65
2023/10/19 06:05:50;;;;;;;2.63;0.98;;;;;;;19.43;51.65;99154.41;4996501;28;20038;-65
2023/10/19 06:08:16;;;;;;;2.72;0.90;;;;;;;19.41;51.62;99151.94;4994568;28;20046;-64
2023/10/19 06:10:42;;;;;;;2.40;0.95;;;;;;;19.43;51.63;99151.75;4996501;28;20030;-65
2023/10/19 06:13:09;;;;;;;2.75;0.95;;;;;;;19.45;51.59;99157.69;4996444;28;21352;-62
2023/10/19 06:15:35;;;;;;;2.60;1.10;;;;;;;19.45;51.90;99160.34;4996434;28;20037;-64
2023/10/19 06:18:01;;;;;;;2.55;1.05;;;;;;;19.44;51.67;99159.53;4996691;28;20100;-63
2023/10/19 06:20:26;;;;;;;3.00;0.88;;;;;;;19.45;51.83;99158.50;4996329;28;20042;-63
2023/10/19 06:23:00;;;;;;;2.90;1.00;;;;;;;19.45;51.79;99161.16;4996588;28;20470;-64
2023/10/19 06:25:26;;;;;;;2.58;0.98;;;;;;;19.47;51.81;99153.03;4996589;28;20081;-63
2023/10/19 06:27:52;;;;;;;2.35;0.90;;;;;;;19.48;51.63;99146.78;4996538;28;20026;-64
2023/10/19 06:30:19;;;;;;;2.95;1.00;;;;;;;19.48;51.65;99163.44;5003122;28;20030;-65
2023/10/19 06:32:52;;;;;;;2.58;0.80;;;;;;;19.49;51.71;99165.09;4996501;28;20029;-62
2023/10/19 06:35:19;;;;;;;2.22;0.90;;;;;;;19.49;51.70;99169.56;4996692;28;20478;-62
2023/10/19 06:37:45;;;;;;;3.28;1.10;;;;;;;19.50;51.85;99176.47;4996803;28;20411;-65
2023/10/19 06:40:12;;;;;;;3.00;0.98;;;;;;;19.48;51.95;99175.84;4996478;28;20041;-65
2023/10/19 06:42:38;;;;;;;3.92;0.90;;;;;;;19.46;51.80;99176.00;4996605;28;20034;-64
2023/10/19 06:45:04;;;;;;;3.50;1.27;;;;;;;19.48;52.05;99173.19;4995267;28;20034;-62
2023/10/19 06:47:30;;;;;;;2.65;0.90;;;;;;;19.47;51.96;99168.91;4995743;28;20088;-63
2023/10/19 06:49:55;;;;;;;2.67;0.88;;;;;;;19.47;52.08;99175.03;4998985;28;20037;-65
2023/10/19 06:52:21;;;;;;;3.17;1.00;;;;;;;19.47;52.37;99182.94;4999655;28;20386;-64
2023/10/19 06:54:46;;;;;;;2.70;1.00;;;;;;;19.48;52.25;99176.66;4999337;28;20041;-62
2023/10/19 06:57:12;;;;;;;2.22;0.80;;;;;;;19.47;52.61;99182.94;5000176;28;20522;-62
2023/10/19 06:59:38;;;;;;;2.10;0.80;;;;;;;19.49;52.21;99175.66;4999391;28;20041;-65
2023/10/19 07:02:04;;;;;;;4.63;1.00;;;;;;;19.49;52.27;99178.31;4999738;28;20374;-65
2023/10/19 07:04:29;;;;;;;2.25;0.88;;;;;;;19.52;52.41;99182.44;4999483;28;20501;-66
2023/10/19 07:06:56;;;;;;;2.35;0.90;;;;;;;19.51;52.42;99189.50;4999431;28;20802;-65
2023/10/19 07:09:22;;;;;;;2.28;0.80;;;;;;;19.52;52.51;99191.16;4999166;28;20041;-63
2023/10/19 07:11:48;;;;;;;3.60;0.93;;;;;;;19.51;52.59;99184.22;4999156;28;20416;-63
2023/10/19 07:14:13;;;;;;;4.35;1.00;;;;;;;19.51;52.60;99183.41;4999340;28;20113;-63
2023/10/19 07:16:40;;;;;;;3.93;1.10;;;;;;;19.51;52.59;99183.41;4999216;28;20712;-64
2023/10/19 07:19:05;;;;;;;3.83;0.95;;;;;;;19.53;52.59;99187.50;4998804;28;20288;-66
2023/10/19 07:21:35;;;;;;;3.50;0.90;;;;;;;19.53;52.78;99192.81;4999083;28;20023;-66
2023/10/19 07:24:05;;;;;;;2.97;0.93;;;;;;;19.53;52.70;99192.81;4996739;28;20069;-64
2023/10/19 07:26:33;;;;;;;2.60;1.00;;;;;;;19.54;52.63;99196.28;4998635;28;20173;-61
2023/10/19 07:28:59;;;;;;;3.47;1.10;;;;;;;19.54;52.79;99183.06;4999040;28;20438;-63
2023/10/19 07:31:24;;;;;;;2.97;1.00;;;;;;;19.52;52.73;99177.16;4998651;28;20057;-63
2023/10/19 07:33:50;;;;;;;2.22;0.80;;;;;;;19.52;53.39;99171.88;4998656;28;20093;-64
2023/10/19 07:36:16;;;;;;;2.95;1.05;;;;;;;19.53;53.21;99176.94;5005743;28;20137;-62
2023/10/19 07:38:46;;;;;;;2.58;0.95;;;;;;;19.53;53.10;99174.31;4999110;28;20030;-65
2023/10/19 07:41:11;;;;;;;3.03;1.10;;;;;;;19.54;53.09;99181.25;4998269;28;20844;-64
2023/10/19 07:43:37;;;;;;;3.97;1.02;;;;;;;19.52;53.99;99172.69;4999127;28;20592;-63
2023/10/19 07:46:02;;;;;;;4.47;1.00;;;;;;;19.49;53.99;99172.22;4998605;28;20391;-65
2023/10/19 07:48:28;;;;;;;2.35;0.80;;;;;;;19.55;53.66;99176.78;4998782;28;20402;-63
2023/10/19 07:50:54;;;;;;;2.47;0.93;;;;;;;19.56;53.38;99176.59;4998214;28;20034;-64
2023/10/19 07:53:19;;;;;;;3.05;0.88;;;;;;;19.56;53.47;99173.97;4998789;28;20042;-65
2023/10/19 07:55:45;;;;;;;2.38;0.88;;;;;;;19.59;53.92;99180.72;4996169;28;20515;-62
2023/10/19 07:58:10;;;;;;;2.28;0.77;;;;;;;19.56;53.98;99168.66;4997022;28;20034;-65
2023/10/19 08:00:36;;;;;;;3.50;0.88;;;;;;;19.62;53.89;99171.63;4995237;28;20041;-64
2023/10/19 08:03:04;;;;;;;5.47;1.20;;;;;;;19.65;53.74;99172.09;4997907;28;20494;-65
2023/10/19 08:05:29;;;;;;;4.30;1.30;;;;;;;19.66;53.49;99164.97;4998509;28;20103;-65
2023/10/19 08:07:57;;;;;;;2.60;0.90;;;;;;;19.69;53.40;99165.47;4998282;28;21087;-65
2023/10/19 08:10:22;;;;;;;1.95;0.70;;;;;;;19.67;53.59;99162.16;4998170;28;20083;-65
2023/10/19 08:12:49;;;;;;;2.83;0.85;;;;;;;19.65;53.55;99163.34;5029881;28;20022;-65
2023/10/19 08:15:16;;;;;;;10.50;1.15;;;;;;;19.64;53.55;99153.78;4994863;28;20159;-64
2023/10/19 08:17:43;;;;;;;5.82;1.00;;;;;;;19.61;54.03;99152.28;5027813;28;20041;-67
2023/10/19 08:20:15;;;;;;;4.78;0.90;;;;;;;19.50;54.85;99147.41;4996542;28;20456;-67
2023/10/19 08:22:46;;;;;;;4.97;1.08;;;;;;;19.42;54.24;99145.63;4997622;28;20035;-67
2023/10/19 08:25:14;;;;;;;3.05;0.90;;;;;;;19.35;54.24;99158.72;4997580;28;20037;-67
2023/10/19 08:27:44;;;;;;;5.22;1.13;;;;;;;19.31;54.06;99152.16;4997197;28;20125;-64
2023/10/19 08:30:13;;;;;;;4.72;0.90;;;;;;;19.30;54.22;99145.22;5028523;28;20399;-63
2023/10/19 08:32:42;;;;;;;4.47;1.00;;;;;;;19.30;54.77;99157.63;4997226;28;20116;-66
2023/10/19 08:35:11;;;;;;;3.58;1.00;;;;;;;19.28;54.42;99146.38;4996864;28;20132;-64
2023/10/19 08:37:39;;;;;;;2.35;0.75;;;;;;;19.30;54.27;99147.06;4996680;28;20111;-62
2023/10/19 08:40:06;;;;;;;3.47;1.02;;;;;;;19.28;54.15;99149.88;4996923;28;20042;-65
2023/10/19 08:42:32;;;;;;;4.28;0.98;;;;;;;19.38;54.13;99158.38;4996590;28;20049;-65
2023/10/19 08:44:59;;;;;;;3.70;0.90;;;;;;;19.55;53.84;99145.06;5000833;28;20031;-65
2023/10/19 08:47:25;;;;;;;6.07;1.17;;;;;;;19.65;53.74;99148.31;4995295;28;20042;-66
2023/10/19 08:49:52;;;;;;;3.60;0.88;;;;;;;19.72;53.24;99148.44;4995529;28;20042;-65
2023/10/19 08:52:22;;;;;;;3.88;0.80;;;;;;;19.63;53.54;99138.91;4994631;28;20030;-64
2023/10/19 08:54:48;;;;;;;5.03;1.02;;;;;;;19.56;54.25;99141.44;4995700;28;20113;-64
2023/10/19 08:57:14;;;;;;;2.28;0.73;;;;;;;19.48;54.27;99150.22;4996202;28;20117;-64
2023/10/19 08:59:39;;;;;;;2.88;0.80;;;;;;;19.44;54.34;99142.81;4997133;28;20035;-64
2023/10/19 09:02:06;;;;;;;5.65;0.80;;;;;;;19.42;55.23;99145.63;4996513;28;20376;-60
2023/10/19 09:04:32;;;;;;;4.28;1.00;;;;;;;19.43;54.72;99135.91;4996820;28;20110;-65
2023/10/19 09:06:57;;;;;;;4.63;1.05;;;;;;;19.43;54.95;99135.91;4997378;28;20033;-63
2023/10/19 09:09:25;;;;;;;3.05;0.90;;;;;;;19.46;54.92;99131.09;4996885;28;20058;-64
2023/10/19 09:11:52;;;;;;;4.72;1.02;;;;;;;19.53;54.90;99128.56;4996189;28;20080;-65
2023/10/19 09:14:36;;;;;;;4.45;0.90;;;;;;;19.50;54.60;99121.84;4996354;28;20136;-62
2023/10/19 09:17:03;;;;;;;3.80;1.15;;;;;;;19.49;54.71;99122.81;5027642;28;20034;-64
2023/10/19 09:19:43;;;;;;;4.13;0.85;;;;;;;19.47;54.77;99114.25;4995959;28;20038;-60
2023/10/19 09:22:22;;;;;;;5.10;0.80;;;;;;;19.47;55.00;99108.97;4996256;28;20030;-62
2023/10/19 09:24:53;;;;;;;10.20;1.40;;;;;;;19.45;54.85;99108.31;4996430;28;20482;-67
2023/10/19 09:27:22;;;;;;;2.55;0.60;;;;;;;19.49;54.85;99111.44;4996142;28;20049;-65
2023/10/19 09:29:48;;;;;;;4.03;0.90;;;;;;;19.48;55.07;99115.88;4996308;28;20044;-64
2023/10/19 09:32:14;;;;;;;3.35;0.90;;;;;;;19.49;55.31;99112.25;4995678;28;20058;-66
2023/10/19 09:34:40;;;;;;;4.65;1.10;;;;;;;19.52;54.90;99122.47;4996073;28;20254;-62
2023/10/19 09:37:06;;;;;;;1.73;0.75;;;;;;;19.49;54.72;99117.53;4994801;28;20034;-62
2023/10/19 09:39:34;;;;;;;2.97;0.90;;;;;;;19.51;54.70;99123.47;4996114;28;20038;-63
2023/10/19 09:42:11;;;;;;;2.95;1.00;;;;;;;19.49;54.83;99122.81;5002682;28;20037;-64
2023/10/19 09:44:45;;;;;;;7.05;1.17;;;;;;;19.48;55.17;99118.53;4996286;28;20117;-63
2023/10/19 09:47:13;;;;;;;4.85;1.10;;;;;;;19.51;54.94;99114.72;4996252;28;20037;-63
2023/10/19 09:49:45;;;;;;;3.55;1.00;;;;;;;19.50;54.94;99113.91;4995833;28;20030;-63
2023/10/19 09:52:13;;;;;;;4.63;0.70;;;;;;;19.50;54.84;99111.28;4996223;28;20042;-63
2023/10/19 09:54:52;;;;;;;3.78;1.33;;;;;;;19.48;54.91;99107.97;5002766;28;20038;-64
2023/10/19 09:57:26;;;;;;;2.97;0.80;;;;;;;19.49;54.71;99104.34;4996392;28;20505;-62
2023/10/19 09:59:59;;;;;;;4.23;1.00;;;;;;;19.50;54.76;99100.69;4995854;28;20129;-64
2023/10/19 10:02:24;;;;;;;4.43;0.90;;;;;;;19.49;54.79;99095.59;4995573;28;21142;-63
2023/10/19 10:04:49;;;;;;;3.70;0.90;;;;;;;19.49;54.72;99095.59;4996144;28;20165;-62
2023/10/19 10:07:18;;;;;;;3.90;0.93;;;;;;;19.51;54.80;99099.69;4995960;28;20479;-62
2023/10/19 10:09:44;;;;;;;4.32;1.30;;;;;;;19.52;54.71;99098.69;4995580;28;20339;-64
2023/10/19 10:12:28;;;;;;;3.70;1.15;;;;;;;19.51;54.76;99104.97;4995740;28;20034;-61
2023/10/19 10:14:58;;;;;;;6.07;1.10;;;;;;;19.53;54.94;99102.16;4945475;28;20057;-62
2023/10/19 10:17:27;;;;;;;6.13;0.90;;;;;;;19.54;54.88;99109.09;4993475;28;20909;-62
2023/10/19 10:20:17;;;;;;;5.03;0.90;;;;;;;19.53;55.06;99099.50;5017676;28;90771;-64
2023/10/19 10:23:32;;;;;;;6.32;1.02;;;;;;;19.52;54.95;99111.09;5070777;27;20459;-63
2023/10/19 10:27:13;;;;;;;6.13;0.90;;;;;;;19.55;55.18;99122.13;5000647;27;20873;-64
2023/10/19 10:29:54;;;;;;;4.53;0.95;;;;;;;19.52;54.99;99111.91;5003523;28;20418;-62
2023/10/19 10:32:44;;;;;;;4.55;0.80;;;;;;;19.53;54.68;99121.47;5003222;28;20054;-63
2023/10/19 10:35:10;;;;;;;3.47;0.82;;;;;;;19.58;54.65;99113.84;5012603;28;20044;-64
2023/10/19 10:37:39;;;;;;;7.05;1.38;;;;;;;19.71;54.33;99107.97;5001655;28;20033;-63
2023/10/19 10:40:06;;;;;;;4.45;1.10;;;;;;;19.84;54.12;99107.41;5013715;28;20477;-63
2023/10/19 10:42:31;;;;;;;4.25;0.85;;;;;;;19.91;53.91;99105.69;5013850;28;20394;-63
2023/10/19 10:44:57;;;;;;;5.38;0.90;;;;;;;19.96;53.55;99113.09;5012447;28;20033;-63
2023/10/19 10:47:24;;;;;;;3.10;0.93;;;;;;;20.00;53.48;99118.84;5013115;28;20075;-63
2023/10/19 10:49:54;;;;;;;7.03;1.45;;;;;;;20.03;53.26;99121.16;5013521;28;20475;-65
2023/10/19 10:52:26;;;;;;;4.15;1.13;;;;;;;19.97;54.07;99114.72;5013455;28;20065;-62
2023/10/19 10:54:52;;;;;;;5.63;1.00;;;;;;;19.99;54.71;99115.38;5013491;28;20376;-62
2023/10/19 10:57:19;;;;;;;3.58;0.90;;;;;;;20.00;54.52;99116.22;5013539;28;20037;-62
2023/10/19 10:59:45;;;;;;;5.18;1.00;;;;;;;20.00;53.92;99110.94;5013494;28;20057;-63
2023/10/19 11:02:18;;;;;;;4.68;0.70;;;;;;;19.97;53.88;99103.34;5003862;28;22576;-63
2023/10/19 11:04:45;;;;;;;7.55;1.15;;;;;;;19.99;54.01;99096.06;5013402;28;20065;-62
2023/10/19 11:07:18;;;;;;;2.85;0.80;;;;;;;19.97;53.81;99095.41;5013627;28;20025;-62
2023/10/19 11:09:44;;;;;;;6.30;1.00;;;;;;;19.97;53.53;99096.22;5013478;28;20066;-63
2023/10/19 11:12:12;;;;;;;5.80;1.35;;;;;;;19.96;53.52;99091.13;5013033;28;20033;-64
2023/10/19 11:14:37;;;;;;;3.50;1.02;;;;;;;19.94;53.67;99078.88;5013135;28;20034;-64
2023/10/19 11:17:15;;;;;;;3.75;0.98;;;;;;;19.94;53.45;99078.06;5012968;28;20041;-65
2023/10/19 11:19:40;;;;;;;3.88;1.00;;;;;;;19.93;53.50;99069.34;5013289;28;20053;-64
2023/10/19 11:22:09;;;;;;;5.90;1.00;;;;;;;19.93;53.40;99064.03;5012946;28;20065;-63
2023/10/19 11:24:39;;;;;;;3.00;1.05;;;;;;;19.92;53.45;99064.22;5013361;28;20038;-64
2023/10/19 11:27:07;;;;;;;7.25;0.90;;;;;;;19.92;53.39;99067.69;5012920;28;20049;-62
2023/10/19 11:29:33;;;;;;;4.32;1.00;;;;;;;19.93;53.54;99058.75;5011415;28;20395;-63
2023/10/19 11:31:59;;;;;;;3.95;0.85;;;;;;;19.92;53.48;99066.88;5012806;28;20121;-62
2023/10/19 11:34:25;;;;;;;4.28;0.95;;;;;;;19.93;53.39;99055.28;5012636;28;20368;-62
2023/10/19 11:36:59;;;;;;;6.88;1.23;;;;;;;19.92;53.74;99054.47;5008415;28;20482;-65
2023/10/19 11:39:25;;;;;;;4.32;1.05;;;;;;;19.92;53.53;99049.19;4999437;28;20036;-61
2023/10/19 11:41:50;;;;;;;5.35;0.93;;;;;;;19.91;53.39;99046.72;4999374;28;20034;-64
2023/10/19 11:44:15;;;;;;;5.10;1.17;;;;;;;19.88;54.22;99039.94;5000027;28;20048;-62
2023/10/19 11:46:41;;;;;;;4.82;0.98;;;;;;;19.87;54.65;99033.03;4999675;28;20095;-63
2023/10/19 11:49:06;;;;;;;6.23;1.00;;;;;;;19.86;54.57;99034.03;4999345;28;20394;-62
2023/10/19 11:51:31;;;;;;;4.28;0.98;;;;;;;19.86;54.54;99049.06;4999212;28;20317;-63